Blanca — 2EKJ7 — position and weather

sailwx.info

Track history (hours):
 
Tides and Currents Weather Stations Pressure Air Temp Water Temp Dewpoint Dewpoint Depression Visibility Wind Speed Wind Dir Waves Ship Positions

Blanca

Last reported at 2017-Jun-06 23:50 UTC. Time now 2017-Aug-18 22:14 UTC.
Position N 38°00' E 015°37'.
Warning: this ship's position is months out of date.

Length 50 m; draft 3.1 m.

Type: Pleasure craft. MMSI: 235085866.

Date/timePositionNaut miles runAvg speedWind from/ knotsBaromVisibWave heightAir tempDewpointWater temp
2017-Jun-06 23:50N 38°00' E 015°37'514.1
2017-Jun-06 23:30N 38°04' E 015°36'815.2
2017-Jun-06 23:00N 38°12' E 015°36'612.3
2017-Jun-06 22:29N 38°17' E 015°40'29112.5
2017-Jun-05 23:09N 41°47' E 011°16'212.9
2017-Jun-05 23:00N 41°48' E 011°15'912.7
2017-Jun-05 22:16N 41°55' E 011°06'512.6
2017-Jun-05 21:52N 41°58' E 011°01'1112.5
2017-Jun-05 20:58N 42°06' E 010°50'6413.0
2017-Jun-05 16:05N 42°49' E 009°47'213.2
2017-Jun-05 15:58N 42°50' E 009°45'613.1
2017-Jun-05 15:31N 42°54' E 009°39'713.2
2017-Jun-05 14:59N 43°00' E 009°36'613.2
2017-Jun-05 14:30N 43°05' E 009°30'110 2.4
2017-Jun-03 15:57N 43°30' E 007°03'5 0.7
2017-Jun-03 09:15N 43°28' E 006°57'414.6
2017-Jun-03 09:00N 43°29' E 007°02'2 0.1
2017-Jun-02 15:52N 43°30' E 007°04'2 4.1
2017-Jun-02 15:30N 43°31' E 007°02'0 0.0
2017-Jun-02 14:33N 43°31' E 007°02'0 0.0
2017-Jun-02 13:54N 43°31' E 007°02'0 0.0
2017-Jun-02 13:27N 43°31' E 007°02'0 0.0
2017-Jun-02 12:57N 43°31' E 007°02'0 0.0
2017-Jun-02 12:27N 43°31' E 007°02'0 0.0
2017-Jun-02 10:21N 43°31' E 007°02'0 0.0
2017-Jun-02 09:54N 43°31' E 007°02'0 0.0
2017-Jun-02 09:30N 43°31' E 007°02'  
2017-May-30 19:42N 43°35' E 007°08'0 0.0
2017-May-30 19:12N 43°35' E 007°08'0 0.0
2017-May-30 19:00N 43°35' E 007°08'0 0.0
2017-May-30 18:27N 43°35' E 007°08'0 0.0
2017-May-29 23:42N 43°35' E 007°08'0 0.0
2017-May-29 22:18N 43°35' E 007°08'0 0.0
2017-May-29 14:48N 43°35' E 007°08'0 0.0
2017-May-29 13:54N 43°35' E 007°08'0 0.0
2017-May-29 13:18N 43°35' E 007°08'0 0.0
2017-May-29 12:57N 43°35' E 007°08'0 0.0
2017-May-29 12:27N 43°35' E 007°08'  
Track history (hours):
 
Tides and Currents Weather Stations Pressure Air Temp Water Temp Dewpoint Dewpoint Depression Visibility Wind Speed Wind Dir Waves Ship Positions

Blanca

Last reported at 2017-Jun-06 23:50 UTC. Time now 2017-Aug-18 22:14 UTC.
Position N 38°00' E 015°37'.
Warning: this ship's position is months out of date.

Length 50 m; draft 3.1 m.

Type: Pleasure craft. MMSI: 235085866.

Date/timePositionNaut miles runAvg speedWind from/ knotsBaromVisibWave heightAir tempDewpointWater temp
2017-Jun-06 23:50N 38°00' E 015°37'514.1
2017-Jun-06 23:30N 38°04' E 015°36'815.2
2017-Jun-06 23:00N 38°12' E 015°36'612.3
2017-Jun-06 22:29N 38°17' E 015°40'29112.5
2017-Jun-05 23:09N 41°47' E 011°16'212.9
2017-Jun-05 23:00N 41°48' E 011°15'912.7
2017-Jun-05 22:16N 41°55' E 011°06'512.6
2017-Jun-05 21:52N 41°58' E 011°01'1112.5
2017-Jun-05 20:58N 42°06' E 010°50'6413.0
2017-Jun-05 16:05N 42°49' E 009°47'213.2
2017-Jun-05 15:58N 42°50' E 009°45'613.1
2017-Jun-05 15:31N 42°54' E 009°39'713.2
2017-Jun-05 14:59N 43°00' E 009°36'613.2
2017-Jun-05 14:30N 43°05' E 009°30'110 2.4
2017-Jun-03 15:57N 43°30' E 007°03'5 0.7
2017-Jun-03 09:15N 43°28' E 006°57'414.6
2017-Jun-03 09:00N 43°29' E 007°02'2 0.1
2017-Jun-02 15:52N 43°30' E 007°04'2 4.1
2017-Jun-02 15:30N 43°31' E 007°02'0 0.0
2017-Jun-02 14:33N 43°31' E 007°02'0 0.0
2017-Jun-02 13:54N 43°31' E 007°02'0 0.0
2017-Jun-02 13:27N 43°31' E 007°02'0 0.0
2017-Jun-02 12:57N 43°31' E 007°02'0 0.0
2017-Jun-02 12:27N 43°31' E 007°02'0 0.0
2017-Jun-02 10:21N 43°31' E 007°02'0 0.0
2017-Jun-02 09:54N 43°31' E 007°02'0 0.0
2017-Jun-02 09:30N 43°31' E 007°02'  
2017-May-30 19:42N 43°35' E 007°08'0 0.0
2017-May-30 19:12N 43°35' E 007°08'0 0.0
2017-May-30 19:00N 43°35' E 007°08'0 0.0
2017-May-30 18:27N 43°35' E 007°08'0 0.0
2017-May-29 23:42N 43°35' E 007°08'0 0.0
2017-May-29 22:18N 43°35' E 007°08'0 0.0
2017-May-29 14:48N 43°35' E 007°08'0 0.0
2017-May-29 13:54N 43°35' E 007°08'0 0.0
2017-May-29 13:18N 43°35' E 007°08'0 0.0
2017-May-29 12:57N 43°35' E 007°08'0 0.0
2017-May-29 12:27N 43°35' E 007°08'  

Dump ship's entire track history